Time,TemperatureF,DewpointF,PressureIn,WindDirection,WindDirectionDegrees,WindSpeedMPH,WindSpeedGustMPH,Humidity,HourlyPrecipIn,Conditions,Clouds,dailyrainin,SolarRadiationWatts/m^2,SoftwareType,DateUTC
2013-01-10 00:01:00,24.0,22.8,30.12,ESE,108,5.7,9.0,95,0.00,RA,,0.00,0.0,WeatherDisplay:10.37,2013-01-09 23:01:00,
2013-01-10 00:06:00,24.0,22.8,30.11,ESE,113,2.9,5.0,95,0.00,RA,,0.00,0.0,WeatherDisplay:10.37,2013-01-09 23:06:00,
2013-01-10 00:11:00,24.0,22.8,30.11,ESE,113,1.5,3.5,95,0.00,CLR,,0.00,0.0,WeatherDisplay:10.37,2013-01-09 23:11:00,
2013-01-10 00:16:00,23.9,22.7,30.11,East,89,5.2,8.0,95,0.00,CLR,,0.00,0.0,WeatherDisplay:10.37,2013-01-09 23:16:00,
2013-01-10 00:21:00,23.9,22.7,30.10,SE,132,2.6,4.0,95,0.00,CLR,,0.00,0.0,WeatherDisplay:10.37,2013-01-09 23:21:00,
2013-01-10 00:26:00,23.9,22.7,30.10,SE,139,3.7,6.0,95,0.00,CLR,,0.00,0.0,WeatherDisplay:10.37,2013-01-09 23:26:00,
2013-01-10 00:31:00,23.9,22.7,30.10,SSE,161,3.0,5.0,95,0.00,CLR,,0.00,0.0,WeatherDisplay:10.37,2013-01-09 23:31:00,
2013-01-10 00:36:00,23.9,22.7,30.10,East,97,2.3,6.9,95,0.00,CLR,,0.00,0.0,WeatherDisplay:10.37,2013-01-09 23:36:00,
2013-01-10 00:41:00,23.9,22.7,30.09,SE,143,2.4,5.8,95,0.00,CLR,,0.00,0.0,WeatherDisplay:10.37,2013-01-09 23:41:00,
2013-01-10 00:46:00,23.9,22.7,30.09,ESE,123,1.0,3.5,95,0.00,CLR,,0.00,0.0,WeatherDisplay:10.37,2013-01-09 23:46:00,
2013-01-10 00:51:00,23.9,22.7,30.10,SE,138,3.7,6.9,95,0.00,CLR,,0.00,0.0,WeatherDisplay:10.37,2013-01-09 23:51:00,
2013-01-10 00:56:00,23.9,22.7,30.10,ESE,123,2.6,4.6,95,0.00,CLR,,0.00,0.0,WeatherDisplay:10.37,2013-01-09 23:56:00,
2013-01-10 01:01:00,23.9,22.7,30.09,South,171,2.7,5.8,95,0.00,CLR,,0.00,0.0,WeatherDisplay:10.37,2013-01-10 00:01:00,
2013-01-10 01:06:00,23.9,22.7,30.09,SE,140,3.1,4.0,95,0.00,CLR,,0.00,0.0,WeatherDisplay:10.37,2013-01-10 00:06:00,
2013-01-10 01:11:00,23.9,22.7,30.09,ESE,102,2.1,5.0,95,0.00,CLR,,0.00,0.0,WeatherDisplay:10.37,2013-01-10 00:11:00,
2013-01-10 01:16:00,23.9,22.7,30.08,ESE,107,2.6,4.0,95,0.00,CLR,,0.00,0.0,WeatherDisplay:10.37,2013-01-10 00:16:00,
2013-01-10 01:21:00,23.9,22.7,30.08,ESE,121,0.9,3.5,95,0.00,CLR,,0.00,0.0,WeatherDisplay:10.37,2013-01-10 00:21:00,
2013-01-10 01:26:00,23.9,22.7,30.08,SE,127,0.5,3.0,95,0.00,CLR,,0.00,0.0,WeatherDisplay:10.37,2013-01-10 00:26:00,
2013-01-10 01:31:00,24.0,22.8,30.07,SSE,149,0.1,3.5,95,0.00,CLR,,0.00,0.0,WeatherDisplay:10.37,2013-01-10 00:31:00,
2013-01-10 01:36:00,24.0,22.8,30.07,SE,135,2.2,6.9,95,0.00,CLR,,0.00,0.0,WeatherDisplay:10.37,2013-01-10 00:36:00,
2013-01-10 01:41:00,24.0,22.8,30.06,ESE,117,4.0,6.9,95,0.00,CLR,,0.00,0.0,WeatherDisplay:10.37,2013-01-10 00:41:00,
2013-01-10 01:46:00,23.9,22.7,30.07,ESE,120,0.3,2.3,95,0.00,CLR,,0.00,0.0,WeatherDisplay:10.37,2013-01-10 00:46:00,
2013-01-10 01:51:00,23.9,22.7,30.07,SE,129,1.4,4.0,95,0.00,CLR,,0.00,0.0,WeatherDisplay:10.37,2013-01-10 00:51:00,
2013-01-10 01:56:00,23.9,22.7,30.07,SE,145,1.5,6.0,95,0.00,CLR,,0.00,0.0,WeatherDisplay:10.37,2013-01-10 00:56:00,
2013-01-10 02:01:00,23.9,22.7,30.07,SSE,148,2.7,5.0,95,0.00,CLR,,0.00,0.0,WeatherDisplay:10.37,2013-01-10 01:01:00,
2013-01-10 02:06:00,24.0,22.8,30.07,ESE,123,3.7,6.0,95,0.00,CLR,,0.00,0.0,WeatherDisplay:10.37,2013-01-10 01:06:00,
2013-01-10 02:11:00,24.0,22.8,30.07,SE,125,3.4,5.8,95,0.00,CLR,,0.00,0.0,WeatherDisplay:10.37,2013-01-10 01:11:00,
2013-01-10 02:16:00,23.9,22.7,30.07,ESE,107,0.7,3.5,95,0.00,CLR,,0.00,0.0,WeatherDisplay:10.37,2013-01-10 01:16:00,
2013-01-10 02:21:00,23.9,22.7,30.07,SSE,164,4.3,6.0,95,0.00,CLR,,0.00,0.0,WeatherDisplay:10.37,2013-01-10 01:21:00,
2013-01-10 02:26:00,23.9,22.7,30.07,SE,143,1.2,5.0,95,0.00,CLR,,0.00,0.0,WeatherDisplay:10.37,2013-01-10 01:26:00,
2013-01-10 02:31:00,23.9,22.7,30.06,SE,124,1.2,3.5,95,0.00,CLR,,0.00,0.0,WeatherDisplay:10.37,2013-01-10 01:31:00,
2013-01-10 02:36:00,23.9,22.7,30.06,ESE,119,1.8,4.0,95,0.00,CLR,,0.00,0.0,WeatherDisplay:10.37,2013-01-10 01:36:00,
2013-01-10 02:41:00,23.9,22.7,30.05,SE,126,3.0,4.6,95,0.00,CLR,,0.00,0.0,WeatherDisplay:10.37,2013-01-10 01:41:00,
2013-01-10 02:46:00,23.9,22.7,30.05,SE,134,3.6,7.0,95,0.00,CLR,,0.00,0.0,WeatherDisplay:10.37,2013-01-10 01:46:00,
2013-01-10 02:51:00,24.0,22.8,30.04,South,186,0.9,3.5,95,0.00,CLR,,0.00,0.0,WeatherDisplay:10.37,2013-01-10 01:51:00,
2013-01-10 02:56:00,24.0,22.8,30.04,SE,130,0.7,3.5,95,0.00,CLR,,0.00,0.0,WeatherDisplay:10.37,2013-01-10 01:56:00,
2013-01-10 03:01:00,24.0,22.8,30.04,SSW,195,0.3,3.5,95,0.00,CLR,,0.00,0.0,WeatherDisplay:10.37,2013-01-10 02:01:00,
2013-01-10 03:06:00,24.0,22.8,30.03,ESE,123,3.0,4.0,95,0.00,CLR,,0.00,0.0,WeatherDisplay:10.37,2013-01-10 02:06:00,
2013-01-10 03:11:00,24.1,22.9,30.04,SE,146,0.8,2.3,95,0.00,CLR,,0.00,0.0,WeatherDisplay:10.37,2013-01-10 02:11:00,
2013-01-10 03:16:00,24.1,22.9,30.03,South,174,1.3,2.3,95,0.00,CLR,,0.00,0.0,WeatherDisplay:10.37,2013-01-10 02:16:00,
2013-01-10 03:21:00,24.1,22.9,30.03,South,171,1.2,4.0,95,0.00,CLR,,0.00,0.0,WeatherDisplay:10.37,2013-01-10 02:21:00,
2013-01-10 03:26:00,24.1,22.9,30.03,SSE,159,3.3,5.0,95,0.00,CLR,,0.00,0.0,WeatherDisplay:10.37,2013-01-10 02:26:00,
2013-01-10 03:31:00,24.1,22.9,30.03,SE,124,2.2,4.0,95,0.00,CLR,,0.00,0.0,WeatherDisplay:10.37,2013-01-10 02:31:00,
2013-01-10 03:36:00,24.2,23.0,30.02,SSE,152,1.1,4.0,95,0.00,CLR,,0.00,0.0,WeatherDisplay:10.37,2013-01-10 02:36:00,
2013-01-10 03:41:00,24.2,23.0,30.02,SE,144,2.0,4.0,95,0.00,CLR,,0.00,0.0,WeatherDisplay:10.37,2013-01-10 02:41:00,
2013-01-10 03:46:00,24.2,23.0,30.01,SSE,165,0.7,3.5,95,0.00,CLR,,0.00,0.0,WeatherDisplay:10.37,2013-01-10 02:46:00,
2013-01-10 03:51:00,24.2,23.0,30.01,SE,129,2.5,4.6,95,0.00,CLR,,0.00,0.0,WeatherDisplay:10.37,2013-01-10 02:51:00,
2013-01-10 03:56:00,24.2,23.0,30.00,ESE,118,1.5,8.1,95,0.00,CLR,,0.00,0.0,WeatherDisplay:10.37,2013-01-10 02:56:00,
2013-01-10 04:01:00,24.2,23.0,30.00,SSE,167,4.2,6.0,95,0.00,CLR,,0.00,0.0,WeatherDisplay:10.37,2013-01-10 03:01:00,
2013-01-10 04:06:00,24.2,23.0,30.00,SE,140,3.7,6.0,95,0.00,CLR,,0.00,0.0,WeatherDisplay:10.37,2013-01-10 03:06:00,
2013-01-10 04:11:00,24.2,23.0,30.00,SSE,150,1.5,6.9,95,0.00,CLR,,0.00,0.0,WeatherDisplay:10.37,2013-01-10 03:11:00,
2013-01-10 04:16:00,24.3,23.1,30.00,ESE,122,0.6,3.5,95,0.00,CLR,,0.00,0.0,WeatherDisplay:10.37,2013-01-10 03:16:00,
2013-01-10 04:21:00,24.3,23.1,29.99,SSE,158,2.8,5.0,95,0.00,CLR,,0.00,0.0,WeatherDisplay:10.37,2013-01-10 03:21:00,
2013-01-10 04:26:00,24.3,23.1,29.99,SSE,159,2.0,4.0,95,0.00,CLR,,0.00,0.0,WeatherDisplay:10.37,2013-01-10 03:26:00,
2013-01-10 04:31:00,24.3,23.1,29.99,SSE,148,3.7,6.0,95,0.00,CLR,,0.00,0.0,WeatherDisplay:10.37,2013-01-10 03:31:00,
2013-01-10 04:36:00,24.3,23.1,29.98,ESE,114,4.8,8.0,95,0.00,CLR,,0.00,0.0,WeatherDisplay:10.37,2013-01-10 03:36:00,
2013-01-10 04:41:00,24.3,23.1,29.98,ESE,114,3.1,4.6,95,0.00,CLR,,0.00,0.0,WeatherDisplay:10.37,2013-01-10 03:41:00,
2013-01-10 04:46:00,24.3,23.1,29.98,SE,146,0.6,3.5,95,0.00,CLR,,0.00,0.0,WeatherDisplay:10.37,2013-01-10 03:46:00,
2013-01-10 04:51:00,24.3,23.1,29.98,South,173,2.2,4.0,95,0.00,CLR,,0.00,0.0,WeatherDisplay:10.37,2013-01-10 03:51:00,
2013-01-10 04:56:00,24.3,23.1,29.97,South,178,2.5,4.0,95,0.00,CLR,,0.00,0.0,WeatherDisplay:10.37,2013-01-10 03:56:00,
2013-01-10 05:01:00,24.3,23.1,29.97,ESE,108,1.2,2.3,95,0.00,CLR,,0.00,0.0,WeatherDisplay:10.37,2013-01-10 04:01:00,
2013-01-10 05:06:00,24.3,23.1,29.98,South,181,1.6,3.5,95,0.00,CLR,,0.00,0.0,WeatherDisplay:10.37,2013-01-10 04:06:00,
2013-01-10 05:11:00,24.4,23.2,29.98,South,178,0.0,0.0,95,0.00,CLR,,0.00,0.0,WeatherDisplay:10.37,2013-01-10 04:11:00,
2013-01-10 05:16:00,24.4,23.2,29.98,SSW,200,0.0,2.3,95,0.00,CLR,,0.00,0.0,WeatherDisplay:10.37,2013-01-10 04:16:00,
2013-01-10 05:21:00,24.4,23.2,29.97,SE,132,2.5,4.0,95,0.00,CLR,,0.00,0.0,WeatherDisplay:10.37,2013-01-10 04:21:00,
2013-01-10 05:26:00,24.4,23.2,29.96,SE,140,2.2,3.5,95,0.00,CLR,,0.00,0.0,WeatherDisplay:10.37,2013-01-10 04:26:00,
2013-01-10 05:31:00,24.5,23.3,29.96,SSE,152,0.3,2.3,95,0.00,CLR,,0.00,0.0,WeatherDisplay:10.37,2013-01-10 04:31:00,
2013-01-10 05:36:00,24.5,23.3,29.96,SSE,163,0.8,3.5,95,0.00,CLR,,0.00,0.0,WeatherDisplay:10.37,2013-01-10 04:36:00,
2013-01-10 05:41:00,24.5,23.3,29.96,ESE,109,0.0,3.5,95,0.00,CLR,,0.00,0.0,WeatherDisplay:10.37,2013-01-10 04:41:00,
2013-01-10 05:46:00,24.5,23.3,29.96,SE,131,0.3,2.3,95,0.00,CLR,,0.00,0.0,WeatherDisplay:10.37,2013-01-10 04:46:00,
2013-01-10 05:51:00,24.6,23.6,29.96,SSE,153,0.4,2.3,96,0.00,CLR,,0.00,0.0,WeatherDisplay:10.37,2013-01-10 04:51:00,
2013-01-10 05:56:00,24.6,23.6,29.97,SSE,153,0.0,0.0,96,0.00,CLR,,0.00,0.0,WeatherDisplay:10.37,2013-01-10 04:56:00,
2013-01-10 06:00:00,24.6,23.6,29.97,SSE,153,0.0,0.0,96,0.00,CLR,,0.00,0.0,WeatherDisplay:10.37,2013-01-10 05:00:00,
2013-01-10 06:01:00,24.6,23.6,29.97,SSE,153,0.2,1.0,96,0.00,CLR,,0.00,0.0,WeatherDisplay:10.37,2013-01-10 05:01:00,
2013-01-10 06:06:00,24.6,23.6,29.97,South,175,0.8,2.3,96,0.00,CLR,,0.00,0.0,WeatherDisplay:10.37,2013-01-10 05:06:00,
2013-01-10 06:11:00,24.7,23.7,29.97,South,175,0.1,2.3,96,0.00,CLR,,0.00,0.0,WeatherDisplay:10.37,2013-01-10 05:11:00,
2013-01-10 06:16:00,24.7,23.7,29.97,South,173,0.8,2.3,96,0.00,CLR,,0.00,0.0,WeatherDisplay:10.37,2013-01-10 05:16:00,
2013-01-10 06:21:00,24.7,23.7,29.97,South,173,0.5,2.0,96,0.00,CLR,,0.00,0.0,WeatherDisplay:10.37,2013-01-10 05:21:00,
2013-01-10 06:26:00,24.8,23.8,29.96,SE,131,2.7,4.0,96,0.00,CLR,,0.00,0.0,WeatherDisplay:10.37,2013-01-10 05:26:00,
2013-01-10 06:31:00,24.8,23.8,29.96,SE,135,2.2,4.0,96,0.00,CLR,,0.00,0.0,WeatherDisplay:10.37,2013-01-10 05:31:00,
2013-01-10 06:36:00,24.8,23.8,29.96,SE,140,1.6,4.0,96,0.00,CLR,,0.00,0.0,WeatherDisplay:10.37,2013-01-10 05:36:00,
2013-01-10 06:41:00,24.8,23.8,29.97,SSE,148,0.3,2.3,96,0.00,CLR,,0.00,0.0,WeatherDisplay:10.37,2013-01-10 05:41:00,
2013-01-10 06:46:00,24.8,23.8,29.97,SSE,148,0.0,1.1,96,0.00,CLR,,0.00,0.0,WeatherDisplay:10.37,2013-01-10 05:46:00,
2013-01-10 06:51:00,24.8,23.8,29.97,SSE,148,0.0,0.0,96,0.00,CLR,,0.00,0.0,WeatherDisplay:10.37,2013-01-10 05:51:00,
2013-01-10 06:56:00,24.8,23.8,29.96,SSE,148,0.0,0.0,96,0.00,CLR,,0.00,0.0,WeatherDisplay:10.37,2013-01-10 05:56:00,
2013-01-10 07:01:00,24.8,23.8,29.96,SSE,148,1.2,2.3,96,0.00,CLR,,0.00,0.0,WeatherDisplay:10.37,2013-01-10 06:01:00,
2013-01-10 07:06:00,24.9,23.9,29.95,SSE,148,0.2,1.1,96,0.00,CLR,,0.00,0.0,WeatherDisplay:10.37,2013-01-10 06:06:00,
2013-01-10 07:11:00,24.9,23.9,29.95,SSE,148,0.0,1.0,96,0.00,CLR,,0.00,0.0,WeatherDisplay:10.37,2013-01-10 06:11:00,
2013-01-10 07:16:00,24.9,23.7,29.95,SSE,148,0.0,0.0,95,0.00,CLR,,0.00,0.0,WeatherDisplay:10.37,2013-01-10 06:16:00,
2013-01-10 07:21:00,24.9,23.7,29.95,SSE,148,0.0,0.0,95,0.00,CLR,,0.00,0.0,WeatherDisplay:10.37,2013-01-10 06:21:00,
2013-01-10 07:26:00,24.9,23.7,29.95,SSE,148,0.8,2.3,95,0.00,CLR,,0.00,0.0,WeatherDisplay:10.37,2013-01-10 06:26:00,
2013-01-10 07:31:00,24.9,23.7,29.95,SSE,148,0.8,1.1,95,0.00,CLR,,0.00,0.0,WeatherDisplay:10.37,2013-01-10 06:31:00,
2013-01-10 07:36:00,24.9,23.7,29.95,SSE,148,0.0,0.0,95,0.00,CLR,,0.00,0.0,WeatherDisplay:10.37,2013-01-10 06:36:00,
2013-01-10 07:41:00,24.9,23.7,29.95,SSE,148,0.7,2.0,95,0.00,CLR,,0.00,0.0,WeatherDisplay:10.37,2013-01-10 06:41:00,
2013-01-10 07:46:00,24.9,23.7,29.94,SSE,148,0.7,2.0,95,0.00,CLR,,0.00,0.0,WeatherDisplay:10.37,2013-01-10 06:46:00,
2013-01-10 07:51:00,24.9,23.7,29.94,SSE,148,0.6,3.5,95,0.00,CLR,,0.00,0.0,WeatherDisplay:10.37,2013-01-10 06:51:00,
2013-01-10 07:56:00,24.9,23.7,29.95,SSE,148,0.0,0.0,95,0.00,CLR,,0.00,0.0,WeatherDisplay:10.37,2013-01-10 06:56:00,
2013-01-10 08:01:00,25.0,24.0,29.95,SSE,148,0.0,1.1,96,0.01,RA,,0.01,0.0,WeatherDisplay:10.37,2013-01-10 07:01:00,
2013-01-10 08:06:00,25.0,24.0,29.94,SSE,148,0.0,0.0,96,0.01,RA,,0.01,5.0,WeatherDisplay:10.37,2013-01-10 07:06:00,
2013-01-10 08:11:00,25.0,24.0,29.95,SSE,148,0.0,1.1,96,0.01,,,0.01,0.0,WeatherDisplay:10.37,2013-01-10 07:11:00,
2013-01-10 08:16:00,25.0,24.0,29.94,SSE,148,0.0,0.0,96,0.01,CLR,,0.01,5.0,WeatherDisplay:10.37,2013-01-10 07:16:00,
2013-01-10 08:21:00,25.1,24.1,29.94,SSE,148,0.0,0.0,96,0.01,CLR,,0.01,7.0,WeatherDisplay:10.37,2013-01-10 07:21:00,
2013-01-10 08:26:00,25.1,24.1,29.95,SSE,148,0.0,0.0,96,0.01,CLR,,0.02,14.0,WeatherDisplay:10.37,2013-01-10 07:26:00,
2013-01-10 08:31:00,25.2,24.2,29.94,SSE,148,0.0,1.1,96,0.02,RA,,0.02,11.0,WeatherDisplay:10.37,2013-01-10 07:31:00,
2013-01-10 08:36:00,25.2,24.2,29.94,SSE,148,0.0,0.0,96,0.02,RA,,0.02,5.0,WeatherDisplay:10.37,2013-01-10 07:36:00,
2013-01-10 08:41:00,25.3,24.3,29.94,SSE,148,0.0,0.0,96,0.02,BKN,,0.02,5.0,WeatherDisplay:10.37,2013-01-10 07:41:00,
2013-01-10 08:46:00,25.3,24.3,29.93,SSE,148,0.2,1.1,96,0.02,OVC,,0.02,5.0,WeatherDisplay:10.37,2013-01-10 07:46:00,
2013-01-10 08:51:00,25.3,24.3,29.93,SSE,148,0.0,0.0,96,0.02,OVC,,0.02,5.0,WeatherDisplay:10.37,2013-01-10 07:51:00,
2013-01-10 08:56:00,25.3,24.3,29.93,SSE,148,0.2,1.0,96,0.02,OVC,,0.02,7.0,WeatherDisplay:10.37,2013-01-10 07:56:00,
2013-01-10 09:01:00,25.4,24.4,29.93,SSE,162,0.0,3.5,96,0.01,BKN,,0.02,12.0,WeatherDisplay:10.37,2013-01-10 08:01:00,
2013-01-10 09:06:00,25.4,24.4,29.93,SSE,162,0.0,0.0,96,0.01,BKN,,0.02,9.0,WeatherDisplay:10.37,2013-01-10 08:06:00,
2013-01-10 09:11:00,25.4,24.4,29.93,SSE,162,0.3,2.0,96,0.01,BKN,,0.02,18.0,WeatherDisplay:10.37,2013-01-10 08:11:00,
2013-01-10 09:16:00,25.5,24.5,29.93,SSE,162,0.0,0.0,96,0.01,BKN,,0.02,25.0,WeatherDisplay:10.37,2013-01-10 08:16:00,
2013-01-10 09:21:00,25.6,24.6,29.93,SSE,162,0.0,0.0,96,0.01,BKN,,0.02,21.0,WeatherDisplay:10.37,2013-01-10 08:21:00,
2013-01-10 09:26:00,25.7,24.7,29.93,SSE,162,0.0,0.0,96,0.01,BKN,,0.02,12.0,WeatherDisplay:10.37,2013-01-10 08:26:00,
2013-01-10 09:31:00,25.7,24.7,29.93,SSE,162,0.0,0.0,96,0.00,BKN,,0.02,21.0,WeatherDisplay:10.37,2013-01-10 08:31:00,
2013-01-10 09:36:00,25.8,24.8,29.93,SSE,162,0.9,2.0,96,0.00,BKN,,0.02,25.0,WeatherDisplay:10.37,2013-01-10 08:36:00,
2013-01-10 09:41:00,25.8,24.8,29.93,SSE,162,0.0,0.0,96,0.00,BKN,,0.02,23.0,WeatherDisplay:10.37,2013-01-10 08:41:00,
2013-01-10 09:46:00,25.9,24.9,29.93,SSE,162,0.0,0.0,96,0.00,BKN,,0.02,26.0,WeatherDisplay:10.37,2013-01-10 08:46:00,
2013-01-10 09:51:00,25.9,24.9,29.92,SSE,162,0.0,1.1,96,0.00,BKN,,0.02,26.0,WeatherDisplay:10.37,2013-01-10 08:51:00,
2013-01-10 09:56:00,25.9,24.9,29.92,SSE,162,0.1,1.0,96,0.00,BKN,,0.02,26.0,WeatherDisplay:10.37,2013-01-10 08:56:00,
2013-01-10 10:01:00,25.9,24.9,29.92,SSE,162,0.1,1.1,96,0.00,BKN,,0.02,35.0,WeatherDisplay:10.37,2013-01-10 09:01:00,
2013-01-10 10:06:00,26.0,25.0,29.92,SSE,162,0.5,2.3,96,0.00,BKN,,0.02,39.0,WeatherDisplay:10.37,2013-01-10 09:06:00,
2013-01-10 10:11:00,26.1,25.1,29.92,SSE,166,0.7,2.0,96,0.00,BKN,,0.02,42.0,WeatherDisplay:10.37,2013-01-10 09:11:00,
2013-01-10 10:17:00,26.1,25.1,29.92,SSE,166,0.2,1.1,96,0.00,BKN,,0.02,51.0,WeatherDisplay:10.37,2013-01-10 09:17:00,
2013-01-10 10:22:00,26.2,25.2,29.92,SSE,166,0.0,0.0,96,0.00,BKN,,0.02,37.0,WeatherDisplay:10.37,2013-01-10 09:22:00,
2013-01-10 10:27:00,26.3,25.3,29.92,SSE,166,1.1,2.3,96,0.00,BKN,,0.02,40.0,WeatherDisplay:10.37,2013-01-10 09:27:00,
2013-01-10 10:32:00,26.4,25.4,29.92,SSE,166,0.0,1.1,96,0.00,BKN,,0.02,39.0,WeatherDisplay:10.37,2013-01-10 09:32:00,
2013-01-10 10:37:00,26.5,25.5,29.91,SSE,166,0.0,1.1,96,0.00,BKN,,0.02,39.0,WeatherDisplay:10.37,2013-01-10 09:37:00,
2013-01-10 10:42:00,26.6,25.6,29.91,SSE,166,0.0,2.3,96,0.00,BKN,,0.02,37.0,WeatherDisplay:10.37,2013-01-10 09:42:00,
2013-01-10 10:47:00,26.7,25.7,29.91,SSE,166,0.8,2.3,96,0.00,BKN,,0.02,40.0,WeatherDisplay:10.37,2013-01-10 09:47:00,
2013-01-10 10:52:00,26.7,25.7,29.91,SSE,166,0.0,0.0,96,0.00,BKN,,0.02,32.0,WeatherDisplay:10.37,2013-01-10 09:52:00,
2013-01-10 10:57:00,26.7,25.7,29.91,SSE,166,0.0,0.0,96,0.00,BKN,,0.02,32.0,WeatherDisplay:10.37,2013-01-10 09:57:00,
2013-01-10 11:02:00,26.8,25.8,29.91,SSE,166,0.8,1.1,96,0.00,BKN,,0.02,32.0,WeatherDisplay:10.37,2013-01-10 10:02:00,
2013-01-10 11:07:00,27.0,26.0,29.91,SSE,166,0.0,0.0,96,0.00,BKN,,0.02,39.0,WeatherDisplay:10.37,2013-01-10 10:07:00,
2013-01-10 11:12:00,27.0,26.0,29.91,SSE,166,0.0,0.0,96,0.00,BKN,,0.02,37.0,WeatherDisplay:10.37,2013-01-10 10:12:00,
2013-01-10 11:17:00,27.1,26.1,29.90,South,174,0.1,1.1,96,0.00,BKN,,0.02,37.0,WeatherDisplay:10.37,2013-01-10 10:17:00,
2013-01-10 11:22:00,27.1,26.1,29.90,South,186,1.2,2.0,96,0.00,BKN,,0.02,37.0,WeatherDisplay:10.37,2013-01-10 10:22:00,
2013-01-10 11:27:00,27.2,26.2,29.90,West,270,0.2,2.3,96,0.00,BKN,,0.02,35.0,WeatherDisplay:10.37,2013-01-10 10:27:00,
2013-01-10 11:33:00,27.2,26.2,29.90,West,270,0.7,2.0,96,0.00,BKN,,0.02,35.0,WeatherDisplay:10.37,2013-01-10 10:33:00,
2013-01-10 11:38:00,27.3,26.3,29.90,West,270,0.7,2.3,96,0.00,BKN,,0.02,33.0,WeatherDisplay:10.37,2013-01-10 10:38:00,
2013-01-10 11:43:00,27.3,26.3,29.89,West,270,0.1,2.3,96,0.00,BKN,,0.02,33.0,WeatherDisplay:10.37,2013-01-10 10:43:00,
2013-01-10 11:48:00,27.3,26.3,29.89,West,263,1.1,3.5,96,0.00,BKN,,0.02,32.0,WeatherDisplay:10.37,2013-01-10 10:48:00,
2013-01-10 11:54:00,27.4,26.4,29.89,West,263,0.3,1.1,96,0.00,BKN,,0.02,37.0,WeatherDisplay:10.37,2013-01-10 10:54:00,
2013-01-10 11:59:00,27.5,26.5,29.89,West,263,0.4,1.1,96,0.00,BKN,,0.02,46.0,WeatherDisplay:10.37,2013-01-10 10:59:00,
2013-01-10 12:04:00,27.5,26.5,29.89,West,263,0.0,0.0,96,0.00,BKN,,0.02,42.0,WeatherDisplay:10.37,2013-01-10 11:04:00,
2013-01-10 12:09:00,27.7,26.7,29.89,West,263,0.0,2.3,96,0.00,BKN,,0.02,44.0,WeatherDisplay:10.37,2013-01-10 11:09:00,
2013-01-10 12:14:00,27.7,26.7,29.89,West,263,0.0,0.0,96,0.00,BKN,,0.02,37.0,WeatherDisplay:10.37,2013-01-10 11:14:00,
2013-01-10 12:20:00,27.9,26.9,29.89,West,263,0.0,0.0,96,0.00,BKN,,0.02,40.0,WeatherDisplay:10.37,2013-01-10 11:20:00,
2013-01-10 12:25:00,28.0,27.0,29.88,West,263,0.0,0.0,96,0.00,BKN,,0.02,44.0,WeatherDisplay:10.37,2013-01-10 11:25:00,
2013-01-10 12:30:00,28.1,27.1,29.88,West,263,0.0,1.1,96,0.00,BKN,,0.02,42.0,WeatherDisplay:10.37,2013-01-10 11:30:00,
2013-01-10 12:35:00,28.1,27.1,29.88,WSW,249,1.1,2.3,96,0.00,BKN,,0.02,44.0,WeatherDisplay:10.37,2013-01-10 11:35:00,
2013-01-10 12:40:00,28.1,27.1,29.88,WSW,249,0.8,1.1,96,0.00,RA,,0.02,23.0,WeatherDisplay:10.37,2013-01-10 11:40:00,
2013-01-10 12:46:00,28.2,27.2,29.87,WSW,248,0.9,3.5,96,0.00,RA,,0.02,35.0,WeatherDisplay:10.37,2013-01-10 11:46:00,
2013-01-10 12:51:00,28.2,27.2,29.87,WSW,248,0.1,1.1,96,0.00,BKN,,0.02,39.0,WeatherDisplay:10.37,2013-01-10 11:51:00,
2013-01-10 12:56:00,28.2,27.2,29.87,SSW,212,0.7,3.5,96,0.00,BKN,,0.02,49.0,WeatherDisplay:10.37,2013-01-10 11:56:00,
2013-01-10 13:01:00,28.3,27.3,29.87,SSW,212,0.0,0.0,96,0.00,BKN,,0.02,37.0,WeatherDisplay:10.37,2013-01-10 12:01:00,
2013-01-10 13:06:00,28.4,27.4,29.86,SSW,212,0.2,1.1,96,0.00,BKN,,0.02,42.0,WeatherDisplay:10.37,2013-01-10 12:06:00,
2013-01-10 13:11:00,28.4,27.4,29.86,SSW,211,0.3,2.0,96,0.00,BKN,,0.02,39.0,WeatherDisplay:10.37,2013-01-10 12:11:00,
2013-01-10 13:16:00,28.5,27.3,29.86,SSW,212,0.0,1.1,95,0.00,BKN,,0.02,37.0,WeatherDisplay:10.37,2013-01-10 12:16:00,
2013-01-10 13:21:00,28.5,27.5,29.86,SSW,212,0.1,1.1,96,0.00,BKN,,0.02,39.0,WeatherDisplay:10.37,2013-01-10 12:21:00,
2013-01-10 13:26:00,28.6,27.4,29.86,SSW,211,0.9,3.0,95,0.00,BKN,,0.02,58.0,WeatherDisplay:10.37,2013-01-10 12:26:00,
2013-01-10 13:31:00,28.7,27.4,29.86,SSW,211,0.0,1.1,95,0.00,BKN,,0.02,32.0,WeatherDisplay:10.37,2013-01-10 12:31:00,
2013-01-10 13:36:00,28.8,27.8,29.86,SSW,212,0.0,1.1,96,0.00,BKN,,0.02,58.0,WeatherDisplay:10.37,2013-01-10 12:36:00,
2013-01-10 13:41:00,28.9,27.9,29.85,SSW,212,0.0,0.0,96,0.00,BKN,,0.02,35.0,WeatherDisplay:10.37,2013-01-10 12:41:00,
2013-01-10 13:46:00,28.9,27.9,29.85,SSW,212,0.0,1.1,96,0.00,BKN,,0.02,49.0,WeatherDisplay:10.37,2013-01-10 12:46:00,
2013-01-10 13:51:00,29.0,27.7,29.85,SSW,212,0.6,2.0,95,0.00,BKN,,0.02,30.0,WeatherDisplay:10.37,2013-01-10 12:51:00,
2013-01-10 13:56:00,29.0,27.7,29.85,SSW,212,0.5,2.0,95,0.00,BKN,,0.02,39.0,WeatherDisplay:10.37,2013-01-10 12:56:00,
2013-01-10 14:01:00,29.1,27.8,29.85,SSW,211,0.0,1.1,95,0.00,BKN,,0.02,46.0,WeatherDisplay:10.37,2013-01-10 13:01:00,
2013-01-10 14:06:00,29.2,28.2,29.85,SSW,212,0.0,2.3,96,0.00,BKN,,0.02,25.0,WeatherDisplay:10.37,2013-01-10 13:06:00,
2013-01-10 14:11:00,29.2,28.2,29.85,SSW,212,0.7,2.0,96,0.00,BKN,,0.02,23.0,WeatherDisplay:10.37,2013-01-10 13:11:00,
2013-01-10 14:16:00,29.2,27.9,29.85,SSW,212,0.0,0.0,95,0.00,BKN,,0.02,12.0,WeatherDisplay:10.37,2013-01-10 13:16:00,
2013-01-10 14:21:00,29.2,27.9,29.85,SSW,212,0.0,1.0,95,0.00,BKN,,0.02,21.0,WeatherDisplay:10.37,2013-01-10 13:21:00,
2013-01-10 14:26:00,29.2,27.9,29.85,SSW,212,0.0,0.0,95,0.00,BKN,,0.02,23.0,WeatherDisplay:10.37,2013-01-10 13:26:00,
2013-01-10 14:31:00,29.3,28.0,29.85,SSW,212,0.0,0.0,95,0.00,BKN,,0.02,19.0,WeatherDisplay:10.37,2013-01-10 13:31:00,
2013-01-10 14:36:00,29.3,28.0,29.85,SSW,211,0.0,0.0,95,0.00,BKN,,0.02,28.0,WeatherDisplay:10.37,2013-01-10 13:36:00,
2013-01-10 14:41:00,29.4,28.1,29.85,SSW,212,0.0,0.0,95,0.00,BKN,,0.02,28.0,WeatherDisplay:10.37,2013-01-10 13:41:00,
2013-01-10 14:46:00,29.4,28.1,29.84,SSW,212,0.0,0.0,95,0.00,BKN,,0.02,26.0,WeatherDisplay:10.37,2013-01-10 13:46:00,
2013-01-10 14:51:00,29.5,28.2,29.84,SSW,211,0.0,1.1,95,0.00,BKN,,0.02,42.0,WeatherDisplay:10.37,2013-01-10 13:51:00,
2013-01-10 14:56:00,29.6,28.3,29.84,SSW,212,0.7,2.0,95,0.00,BKN,,0.02,35.0,WeatherDisplay:10.37,2013-01-10 13:56:00,
2013-01-10 15:01:00,29.7,28.4,29.84,SSW,212,1.4,2.3,95,0.00,BKN,,0.02,28.0,WeatherDisplay:10.37,2013-01-10 14:01:00,
2013-01-10 15:06:00,29.7,28.7,29.84,SSW,211,1.9,3.0,96,0.00,BKN,,0.02,28.0,WeatherDisplay:10.37,2013-01-10 14:06:00,
2013-01-10 15:11:00,29.8,28.5,29.84,SSW,212,1.2,3.0,95,0.00,BKN,,0.02,19.0,WeatherDisplay:10.37,2013-01-10 14:11:00,
2013-01-10 15:16:00,29.9,28.6,29.84,SSW,211,1.2,3.5,95,0.00,BKN,,0.02,21.0,WeatherDisplay:10.37,2013-01-10 14:16:00,
2013-01-10 15:21:00,30.0,28.7,29.84,SSW,212,0.0,0.0,95,0.00,BKN,,0.02,21.0,WeatherDisplay:10.37,2013-01-10 14:21:00,
2013-01-10 15:26:00,30.0,28.7,29.84,SSW,212,0.4,2.0,95,0.00,BKN,,0.02,28.0,WeatherDisplay:10.37,2013-01-10 14:26:00,
2013-01-10 15:31:00,30.1,28.8,29.84,SSW,212,0.0,1.1,95,0.00,BKN,,0.02,25.0,WeatherDisplay:10.37,2013-01-10 14:31:00,
2013-01-10 15:36:00,30.2,29.2,29.84,SSW,212,0.0,0.0,96,0.00,BKN,,0.02,16.0,WeatherDisplay:10.37,2013-01-10 14:36:00,
2013-01-10 15:41:00,30.2,29.2,29.84,SSW,211,0.1,1.1,96,0.00,BKN,,0.02,21.0,WeatherDisplay:10.37,2013-01-10 14:41:00,
2013-01-10 15:46:00,30.3,29.0,29.84,SSW,212,0.0,0.0,95,0.00,BKN,,0.02,11.0,WeatherDisplay:10.37,2013-01-10 14:46:00,
2013-01-10 15:51:00,30.3,29.0,29.84,SSW,212,0.0,0.0,95,0.00,BKN,,0.02,7.0,WeatherDisplay:10.37,2013-01-10 14:51:00,
2013-01-10 15:56:00,30.2,28.9,29.84,SSW,212,1.0,2.3,95,0.00,BKN,,0.02,0.0,WeatherDisplay:10.37,2013-01-10 14:56:00,
2013-01-10 16:01:00,30.3,29.0,29.84,SSW,212,0.0,0.0,95,0.00,BKN,,0.02,0.0,WeatherDisplay:10.37,2013-01-10 15:01:00,
2013-01-10 16:06:00,30.3,29.0,29.84,SSW,212,0.0,0.0,95,0.00,BKN,,0.02,0.0,WeatherDisplay:10.37,2013-01-10 15:06:00,
2013-01-10 16:11:00,30.3,29.0,29.85,SSW,212,0.0,0.0,95,0.00,BKN,,0.02,0.0,WeatherDisplay:10.37,2013-01-10 15:11:00,
2013-01-10 16:16:00,30.3,29.0,29.85,SSW,212,0.1,1.0,95,0.00,BKN,,0.02,0.0,WeatherDisplay:10.37,2013-01-10 15:16:00,
2013-01-10 16:21:00,30.3,29.0,29.85,SSW,211,0.0,0.0,95,0.00,BKN,,0.02,0.0,WeatherDisplay:10.37,2013-01-10 15:21:00,
2013-01-10 16:26:00,30.4,29.1,29.84,SSW,212,0.0,0.0,95,0.00,BKN,,0.02,0.0,WeatherDisplay:10.37,2013-01-10 15:26:00,
2013-01-10 16:31:00,30.4,29.1,29.84,SSW,212,0.1,1.1,95,0.00,BKN,,0.02,0.0,WeatherDisplay:10.37,2013-01-10 15:31:00,
2013-01-10 16:36:00,30.4,29.1,29.84,SSW,212,0.8,2.0,95,0.00,BKN,,0.02,0.0,WeatherDisplay:10.37,2013-01-10 15:36:00,
2013-01-10 16:41:00,30.4,29.1,29.84,SSW,212,0.0,1.1,95,0.00,BKN,,0.02,0.0,WeatherDisplay:10.37,2013-01-10 15:41:00,
2013-01-10 16:46:00,30.4,29.1,29.84,SSW,212,0.0,0.0,95,0.00,BKN,,0.02,0.0,WeatherDisplay:10.37,2013-01-10 15:46:00,
2013-01-10 16:51:00,30.4,29.1,29.83,SSW,212,0.0,0.0,95,0.00,BKN,,0.02,0.0,WeatherDisplay:10.37,2013-01-10 15:51:00,
2013-01-10 16:56:00,30.5,29.2,29.83,SSW,212,0.0,0.0,95,0.00,BKN,,0.02,0.0,WeatherDisplay:10.37,2013-01-10 15:56:00,
2013-01-10 17:01:00,30.5,29.2,29.83,SSW,212,0.0,0.0,95,0.00,BKN,,0.02,0.0,WeatherDisplay:10.37,2013-01-10 16:01:00,
2013-01-10 17:06:00,30.4,29.1,29.83,SSW,212,0.0,0.0,95,0.00,BKN,,0.02,0.0,WeatherDisplay:10.37,2013-01-10 16:06:00,
2013-01-10 17:11:00,30.5,29.2,29.83,SSW,211,0.0,0.0,95,0.00,BKN,,0.02,0.0,WeatherDisplay:10.37,2013-01-10 16:11:00,
2013-01-10 17:16:00,30.5,29.2,29.83,SSW,211,0.0,0.0,95,0.00,BKN,,0.02,0.0,WeatherDisplay:10.37,2013-01-10 16:16:00,
2013-01-10 17:21:00,30.5,29.2,29.83,SSW,212,0.0,0.0,95,0.00,BKN,,0.02,0.0,WeatherDisplay:10.37,2013-01-10 16:21:00,
2013-01-10 17:26:00,30.5,29.2,29.83,SSW,211,0.0,0.0,95,0.00,BKN,,0.02,0.0,WeatherDisplay:10.37,2013-01-10 16:26:00,
2013-01-10 17:31:00,30.5,29.2,29.83,SSW,212,0.0,0.0,95,0.00,BKN,,0.02,0.0,WeatherDisplay:10.37,2013-01-10 16:31:00,
2013-01-10 17:36:00,30.5,29.2,29.82,SSW,212,0.0,0.0,95,0.00,BKN,,0.02,0.0,WeatherDisplay:10.37,2013-01-10 16:36:00,
2013-01-10 17:41:00,30.5,29.2,29.82,SSW,212,0.0,0.0,95,0.00,BKN,,0.02,0.0,WeatherDisplay:10.37,2013-01-10 16:41:00,
2013-01-10 17:46:00,30.6,29.3,29.81,SSW,212,0.0,0.0,95,0.00,BKN,,0.02,0.0,WeatherDisplay:10.37,2013-01-10 16:46:00,
2013-01-10 17:51:00,30.6,29.3,29.82,SSW,212,0.0,0.0,95,0.00,BKN,,0.02,0.0,WeatherDisplay:10.37,2013-01-10 16:51:00,
2013-01-10 17:56:00,30.6,29.3,29.82,SSW,211,0.0,0.0,95,0.00,BKN,,0.02,0.0,WeatherDisplay:10.37,2013-01-10 16:56:00,
2013-01-10 18:01:00,30.5,29.2,29.82,SSW,212,0.0,0.0,95,0.00,BKN,,0.02,0.0,WeatherDisplay:10.37,2013-01-10 17:01:00,
2013-01-10 18:06:00,30.4,29.1,29.82,SSW,212,0.0,1.0,95,0.00,BKN,,0.02,0.0,WeatherDisplay:10.37,2013-01-10 17:06:00,
2013-01-10 18:11:00,30.3,29.0,29.82,SSW,211,0.0,1.1,95,0.00,BKN,,0.02,0.0,WeatherDisplay:10.37,2013-01-10 17:11:00,
2013-01-10 18:16:00,30.2,28.9,29.82,SSW,212,0.0,0.0,95,0.00,BKN,,0.02,0.0,WeatherDisplay:10.37,2013-01-10 17:16:00,
2013-01-10 18:21:00,30.1,28.8,29.82,SSW,211,0.0,0.0,95,0.00,BKN,,0.02,0.0,WeatherDisplay:10.37,2013-01-10 17:21:00,
2013-01-10 18:26:00,30.0,28.7,29.82,SSW,212,0.0,0.0,95,0.00,BKN,,0.02,0.0,WeatherDisplay:10.37,2013-01-10 17:26:00,
2013-01-10 18:31:00,30.1,28.8,29.82,SSW,212,0.0,0.0,95,0.00,BKN,,0.02,0.0,WeatherDisplay:10.37,2013-01-10 17:31:00,
2013-01-10 18:36:00,30.1,28.8,29.81,SSW,212,0.0,0.0,95,0.00,BKN,,0.02,0.0,WeatherDisplay:10.37,2013-01-10 17:36:00,
2013-01-10 18:41:00,30.1,28.8,29.81,SSW,211,0.0,0.0,95,0.00,BKN,,0.02,0.0,WeatherDisplay:10.37,2013-01-10 17:41:00,
2013-01-10 18:46:00,30.1,28.8,29.81,SSW,212,0.0,0.0,95,0.00,BKN,,0.02,0.0,WeatherDisplay:10.37,2013-01-10 17:46:00,
2013-01-10 18:51:00,30.1,28.8,29.81,SSW,212,0.0,0.0,95,0.00,BKN,,0.02,0.0,WeatherDisplay:10.37,2013-01-10 17:51:00,
2013-01-10 18:56:00,30.1,28.8,29.81,SSW,212,0.0,0.0,95,0.00,BKN,,0.02,0.0,WeatherDisplay:10.37,2013-01-10 17:56:00,
2013-01-10 19:01:00,30.2,28.9,29.81,SSW,212,0.0,0.0,95,0.00,BKN,,0.02,0.0,WeatherDisplay:10.37,2013-01-10 18:01:00,
2013-01-10 19:06:00,30.1,28.8,29.81,SSW,212,0.0,0.0,95,0.00,BKN,,0.02,0.0,WeatherDisplay:10.37,2013-01-10 18:06:00,
2013-01-10 19:11:00,30.1,28.8,29.81,SSW,212,0.0,0.0,95,0.00,BKN,,0.02,0.0,WeatherDisplay:10.37,2013-01-10 18:11:00,
2013-01-10 19:16:00,30.1,28.8,29.81,SSW,212,0.0,0.0,95,0.00,BKN,,0.02,0.0,WeatherDisplay:10.37,2013-01-10 18:16:00,
2013-01-10 19:21:00,30.0,28.7,29.80,SSW,211,0.0,0.0,95,0.00,BKN,,0.02,0.0,WeatherDisplay:10.37,2013-01-10 18:21:00,
2013-01-10 19:26:00,30.0,28.7,29.80,SSW,212,0.0,0.0,95,0.00,BKN,,0.02,0.0,WeatherDisplay:10.37,2013-01-10 18:26:00,
2013-01-10 19:31:00,30.0,28.7,29.80,SSW,212,0.0,0.0,95,0.00,BKN,,0.02,0.0,WeatherDisplay:10.37,2013-01-10 18:31:00,
2013-01-10 19:37:00,30.0,28.7,29.80,SSW,212,0.0,0.0,95,0.00,BKN,,0.02,0.0,WeatherDisplay:10.37,2013-01-10 18:37:00,
2013-01-10 19:42:00,30.0,28.7,29.80,SSW,212,0.0,0.0,95,0.00,BKN,,0.02,0.0,WeatherDisplay:10.37,2013-01-10 18:42:00,
2013-01-10 19:47:00,29.9,28.6,29.80,SSW,211,0.1,1.1,95,0.00,BKN,,0.02,0.0,WeatherDisplay:10.37,2013-01-10 18:47:00,
2013-01-10 19:52:00,29.9,28.6,29.80,SSW,212,0.0,0.0,95,0.00,BKN,,0.02,0.0,WeatherDisplay:10.37,2013-01-10 18:52:00,
2013-01-10 19:57:00,29.9,28.6,29.80,SSW,212,0.0,0.0,95,0.00,BKN,,0.02,0.0,WeatherDisplay:10.37,2013-01-10 18:57:00,
2013-01-10 20:02:00,29.9,28.6,29.80,SSW,211,0.0,0.0,95,0.00,BKN,,0.02,0.0,WeatherDisplay:10.37,2013-01-10 19:02:00,
2013-01-10 20:07:00,29.9,28.6,29.80,SSW,212,0.0,0.0,95,0.00,BKN,,0.02,0.0,WeatherDisplay:10.37,2013-01-10 19:07:00,
2013-01-10 20:12:00,29.9,28.6,29.80,SSW,211,0.5,2.3,95,0.00,BKN,,0.02,0.0,WeatherDisplay:10.37,2013-01-10 19:12:00,
2013-01-10 20:17:00,30.1,28.8,29.80,SSW,212,0.0,0.0,95,0.00,BKN,,0.02,0.0,WeatherDisplay:10.37,2013-01-10 19:17:00,
2013-01-10 20:22:00,30.2,29.2,29.80,SSW,212,1.8,3.5,96,0.00,BKN,,0.02,0.0,WeatherDisplay:10.37,2013-01-10 19:22:00,
2013-01-10 20:27:00,30.3,29.3,29.80,SSW,212,0.0,1.1,96,0.00,BKN,,0.02,0.0,WeatherDisplay:10.37,2013-01-10 19:27:00,
2013-01-10 20:32:00,30.4,29.4,29.80,SSW,212,1.2,2.3,96,0.00,BKN,,0.02,0.0,WeatherDisplay:10.37,2013-01-10 19:32:00,
2013-01-10 20:38:00,30.5,29.5,29.80,South,169,1.3,3.5,96,0.00,BKN,,0.02,0.0,WeatherDisplay:10.37,2013-01-10 19:38:00,
2013-01-10 20:43:00,30.6,29.6,29.80,SSE,168,1.7,4.0,96,0.00,BKN,,0.02,0.0,WeatherDisplay:10.37,2013-01-10 19:43:00,
2013-01-10 20:48:00,30.7,29.7,29.80,South,180,1.0,4.0,96,0.00,BKN,,0.02,0.0,WeatherDisplay:10.37,2013-01-10 19:48:00,
2013-01-10 20:53:00,30.8,29.8,29.80,South,182,2.3,4.0,96,0.00,BKN,,0.02,0.0,WeatherDisplay:10.37,2013-01-10 19:53:00,
2013-01-10 20:58:00,30.9,29.9,29.80,South,173,0.1,1.1,96,0.00,BKN,,0.02,0.0,WeatherDisplay:10.37,2013-01-10 19:58:00,
2013-01-10 21:04:00,31.0,30.0,29.80,South,169,0.5,3.5,96,0.00,BKN,,0.02,0.0,WeatherDisplay:10.37,2013-01-10 20:04:00,
2013-01-10 21:09:00,31.0,30.0,29.80,South,174,0.5,3.0,96,0.00,BKN,,0.02,0.0,WeatherDisplay:10.37,2013-01-10 20:09:00,
2013-01-10 21:14:00,31.0,30.0,29.80,South,173,1.5,3.5,96,0.00,BKN,,0.02,0.0,WeatherDisplay:10.37,2013-01-10 20:14:00,
2013-01-10 21:20:00,31.1,30.1,29.80,South,174,2.8,4.0,96,0.00,BKN,,0.02,0.0,WeatherDisplay:10.37,2013-01-10 20:20:00,
2013-01-10 21:25:00,31.1,30.1,29.80,South,181,3.0,6.0,96,0.00,BKN,,0.02,0.0,WeatherDisplay:10.37,2013-01-10 20:25:00,
2013-01-10 21:30:00,31.2,30.2,29.80,South,185,1.0,4.0,96,0.00,BKN,,0.02,0.0,WeatherDisplay:10.37,2013-01-10 20:30:00,
2013-01-10 21:36:00,31.2,30.2,29.80,South,180,3.0,4.0,96,0.00,BKN,,0.02,0.0,WeatherDisplay:10.37,2013-01-10 20:36:00,
2013-01-10 21:42:00,31.3,30.3,29.80,SSW,195,2.0,4.6,96,0.00,BKN,,0.02,0.0,WeatherDisplay:10.37,2013-01-10 20:42:00,
2013-01-10 21:46:00,31.3,30.3,29.80,South,175,0.7,3.5,96,0.00,BKN,,0.02,0.0,WeatherDisplay:10.37,2013-01-10 20:46:00,
2013-01-10 21:51:00,31.3,30.3,29.80,SSW,212,1.1,3.5,96,0.00,BKN,,0.02,0.0,WeatherDisplay:10.37,2013-01-10 20:51:00,
2013-01-10 21:57:00,31.3,30.3,29.80,SSW,200,2.3,4.0,96,0.00,BKN,,0.02,0.0,WeatherDisplay:10.37,2013-01-10 20:57:00,
2013-01-10 22:01:00,31.3,30.3,29.80,South,184,1.1,3.5,96,0.00,BKN,,0.02,0.0,WeatherDisplay:10.37,2013-01-10 21:01:00,
2013-01-10 22:06:00,31.4,30.4,29.80,SW,217,1.5,3.0,96,0.00,BKN,,0.02,0.0,WeatherDisplay:10.37,2013-01-10 21:06:00,
2013-01-10 22:11:00,31.5,30.5,29.80,South,190,2.3,4.6,96,0.00,BKN,,0.02,0.0,WeatherDisplay:10.37,2013-01-10 21:11:00,
2013-01-10 22:16:00,31.6,30.6,29.80,SSW,194,0.7,3.5,96,0.00,BKN,,0.02,0.0,WeatherDisplay:10.37,2013-01-10 21:16:00,
2013-01-10 22:22:00,31.7,30.7,29.80,SSW,201,1.2,3.5,96,0.00,BKN,,0.02,0.0,WeatherDisplay:10.37,2013-01-10 21:22:00,
2013-01-10 22:28:00,31.8,30.8,29.79,SE,137,3.1,4.0,96,0.00,BKN,,0.02,0.0,WeatherDisplay:10.37,2013-01-10 21:28:00,
2013-01-10 22:33:00,31.9,30.9,29.79,South,169,2.2,4.6,96,0.00,BKN,,0.02,0.0,WeatherDisplay:10.37,2013-01-10 21:33:00,
2013-01-10 22:38:00,32.0,31.0,29.79,South,184,2.0,4.0,96,0.00,BKN,,0.02,0.0,WeatherDisplay:10.37,2013-01-10 21:38:00,
2013-01-10 22:43:00,32.0,31.0,29.79,SSW,197,1.4,5.8,96,0.00,BKN,,0.02,0.0,WeatherDisplay:10.37,2013-01-10 21:43:00,
2013-01-10 22:48:00,32.1,31.1,29.79,SSE,166,2.9,3.5,96,0.00,BKN,,0.02,0.0,WeatherDisplay:10.37,2013-01-10 21:48:00,
2013-01-10 22:53:00,32.2,31.2,29.79,SSE,159,1.4,3.5,96,0.00,BKN,,0.02,0.0,WeatherDisplay:10.37,2013-01-10 21:53:00,
2013-01-10 22:58:00,32.2,31.2,29.78,SSE,159,2.9,4.0,96,0.00,BKN,,0.02,0.0,WeatherDisplay:10.37,2013-01-10 21:58:00,
2013-01-10 23:03:00,32.3,31.3,29.78,SSE,156,1.3,3.5,96,0.00,BKN,,0.02,0.0,WeatherDisplay:10.37,2013-01-10 22:03:00,
2013-01-10 23:08:00,32.3,31.3,29.77,South,169,1.5,3.5,96,0.00,BKN,,0.02,0.0,WeatherDisplay:10.37,2013-01-10 22:08:00,
2013-01-10 23:13:00,32.4,31.4,29.77,South,174,1.6,3.5,96,0.00,BKN,,0.02,0.0,WeatherDisplay:10.37,2013-01-10 22:13:00,
2013-01-10 23:18:00,32.4,31.4,29.77,SSE,159,1.9,3.5,96,0.00,BKN,,0.02,0.0,WeatherDisplay:10.37,2013-01-10 22:18:00,
2013-01-10 23:23:00,32.5,31.5,29.77,SSE,168,2.1,3.0,96,0.00,BKN,,0.02,0.0,WeatherDisplay:10.37,2013-01-10 22:23:00,
2013-01-10 23:28:00,32.5,31.5,29.77,SE,145,1.6,3.5,96,0.00,BKN,,0.02,0.0,WeatherDisplay:10.37,2013-01-10 22:28:00,
2013-01-10 23:33:00,32.5,31.5,29.76,SSE,160,2.1,3.5,96,0.00,BKN,,0.02,0.0,WeatherDisplay:10.37,2013-01-10 22:33:00,
2013-01-10 23:38:00,32.5,31.5,29.76,SSE,159,1.4,3.5,96,0.00,BKN,,0.02,0.0,WeatherDisplay:10.37,2013-01-10 22:38:00,
2013-01-10 23:44:00,32.5,31.5,29.77,SSE,155,0.9,3.5,96,0.00,BKN,,0.02,0.0,WeatherDisplay:10.37,2013-01-10 22:44:00,
2013-01-10 23:49:00,32.4,31.4,29.77,SE,143,2.6,3.5,96,0.00,BKN,,0.02,0.0,WeatherDisplay:10.37,2013-01-10 22:49:00,
2013-01-10 23:54:00,32.2,31.2,29.77,SSE,164,2.2,4.0,96,0.00,BKN,,0.02,0.0,WeatherDisplay:10.37,2013-01-10 22:54:00,
2013-01-10 23:59:00,32.1,31.1,29.77,SSE,147,2.1,4.0,96,0.00,BKN,,0.02,0.0,WeatherDisplay:10.37,2013-01-10 22:59:00,